OKBK/KWI METAR and TAF weather

Enter ICAO airport designator
Station Type Date Time Source
OKBK METAR 2019/02/16 17:00 UTC NOAA

OKBK 161700Z 36009KT CAVOK 17/03 Q1020 NOSIG


Station Type Date Time Source
OKBK Decoded METAR 2019/02/16 17:00 UTC NOAA

Kuwait Internationalairport, Kuwait (OKBK) 29-13N 047-59E 55M
Feb 16, 2019 - 12:00 PM EST / 2019.02.16 1700 UTC
Wind: from the N (360 degrees) at 10 MPH (9 KT):0
Visibility: greater than 7 mile(s):0
Temperature: 62 F (17 C)
Dew Point: 37 F (3 C)
Relative Humidity: 39%
Pressure (altimeter): 30.12 in. Hg (1020 hPa)
ob: OKBK 161700Z 36009KT CAVOK 17/03 Q1020 NOSIG
cycle: 17

Station Type Date Time Source
OKBK TAF 2019/02/16 18:48 UTC NOAA

TAF TAF OKBK 161645Z 1618/1724 35012KT 7000 NSC
TEMPO 1621/1704 VRB03KT 3000 BR


Example: see airport list